Time;durP1;ratioP1;P1;durP2;ratioP2;P2;SDS_P1;SDS_P2;PMS_P1;PMS_P2;Temp;Humidity;BMP_temperature;BMP_pressure;BME280_temperature;BME280_humidity;BME280_pressure;Samples;Min_cycle;Max_cycle;Signal;HPM_P1;HPM_P2
2023/01/27 00:02:07;;;;;;;23.23;10.25;;;22.10;57.20;;;;;;5092037;28;20059;-72
2023/01/27 00:04:33;;;;;;;18.25;7.60;;;22.20;57.10;;;;;;5092447;28;20098;-72
2023/01/27 00:06:59;;;;;;;19.67;9.18;;;22.10;57.40;;;;;;5092323;28;20460;-72
2023/01/27 00:09:25;;;;;;;15.55;8.27;;;22.10;57.40;;;;;;5091005;28;20048;-71
2023/01/27 00:14:50;;;;;;;19.23;10.52;;;22.00;57.50;;;;;;5069212;28;20116;-72
2023/01/27 00:17:16;;;;;;;19.70;9.88;;;22.00;57.50;;;;;;5069002;28;20131;-71
2023/01/27 00:19:43;;;;;;;20.75;11.35;;;21.90;57.70;;;;;;5069275;28;20056;-71
2023/01/27 00:24:54;;;;;;;27.42;13.18;;;21.80;57.70;;;;;;5069063;28;20098;-71
2023/01/27 00:27:20;;;;;;;18.77;9.25;;;21.80;57.70;;;;;;5068913;28;20036;-72
2023/01/27 00:29:46;;;;;;;20.25;10.55;;;21.70;58.00;;;;;;5052294;28;20056;-72
2023/01/27 00:34:57;;;;;;;22.38;10.13;;;21.90;57.40;;;;;;5069146;28;20072;-71
2023/01/27 00:37:23;;;;;;;15.88;10.43;;;21.90;57.20;;;;;;5068813;28;20157;-71
2023/01/27 00:39:48;;;;;;;20.23;10.50;;;21.80;57.00;;;;;;5069135;28;20068;-72
2023/01/27 00:42:15;;;;;;;19.73;10.38;;;21.80;57.00;;;;;;5068900;28;20024;-72
2023/01/27 00:45:47;;;;;;;21.77;10.32;;;21.80;57.10;;;;;;5068882;28;20037;-72
2023/01/27 00:47:27;;;;;;;18.98;8.95;;;21.90;57.10;;;;;;5068323;28;20050;-72
2023/01/27 00:49:53;;;;;;;25.10;11.35;;;21.80;57.00;;;;;;5069451;28;20469;-72
2023/01/27 00:52:19;;;;;;;19.75;9.07;;;21.80;57.10;;;;;;5071387;28;20373;-71
2023/01/27 00:54:45;;;;;;;20.02;11.70;;;21.90;56.70;;;;;;5070010;28;20055;-71
2023/01/27 00:57:11;;;;;;;25.73;13.27;;;21.80;56.20;;;;;;5069856;28;20044;-72
2023/01/27 00:59:37;;;;;;;14.52;7.45;;;21.80;56.50;;;;;;5069784;28;20174;-72
2023/01/27 01:02:03;;;;;;;23.30;11.38;;;21.80;56.80;;;;;;5071251;28;20107;-72
2023/01/27 01:04:30;;;;;;;22.90;12.35;;;21.70;56.70;;;;;;5069811;28;20062;-72
2023/01/27 01:06:56;;;;;;;24.02;11.93;;;21.80;56.70;;;;;;5069934;28;20496;-72
2023/01/27 01:09:21;;;;;;;26.67;13.35;;;21.80;56.60;;;;;;5071289;28;20052;-72
2023/01/27 01:11:47;;;;;;;20.55;11.60;;;21.70;56.70;;;;;;5071058;28;20119;-71
2023/01/27 01:14:14;;;;;;;28.83;13.70;;;21.70;56.70;;;;;;5069720;28;20559;-72
2023/01/27 01:16:40;;;;;;;23.10;12.45;;;21.70;56.70;;;;;;5069682;28;20032;-71
2023/01/27 01:19:06;;;;;;;22.38;12.48;;;21.70;56.50;;;;;;5069624;28;20051;-72
2023/01/27 01:21:32;;;;;;;24.00;12.65;;;21.70;56.60;;;;;;5071122;28;20052;-72
2023/01/27 01:23:58;;;;;;;25.55;12.05;;;21.70;56.50;;;;;;5070956;28;20036;-69
2023/01/27 01:26:24;;;;;;;24.42;12.85;;;21.70;56.50;;;;;;5070549;28;20374;-71
2023/01/27 01:28:50;;;;;;;27.35;13.52;;;21.80;56.50;;;;;;5052336;28;20033;-72
2023/01/27 01:31:18;;;;;;;29.00;14.73;;;21.80;56.40;;;;;;5085664;28;20060;-71
2023/01/27 01:33:45;;;;;;;22.85;12.52;;;21.80;55.90;;;;;;5070689;28;20033;-72
2023/01/27 01:36:14;;;;;;;25.58;12.70;;;21.80;55.70;;;;;;5070956;28;20040;-72
2023/01/27 01:38:40;;;;;;;23.73;11.32;;;21.80;56.00;;;;;;5070496;28;20032;-71
2023/01/27 01:41:09;;;;;;;24.25;9.88;;;21.60;56.10;;;;;;5069261;28;20419;-71
2023/01/27 01:43:35;;;;;;;22.65;10.73;;;21.50;56.30;;;;;;5070031;28;20064;-71
2023/01/27 01:46:03;;;;;;;22.98;11.65;;;21.70;56.60;;;;;;5081339;28;20079;-72
2023/01/27 01:48:29;;;;;;;23.88;11.90;;;21.70;56.20;;;;;;5090594;28;20096;-71
2023/01/27 01:51:04;;;;;;;22.50;12.13;;;21.60;55.90;;;;;;5089016;28;20050;-71
2023/01/27 01:53:40;;;;;;;21.35;11.60;;;21.50;56.30;;;;;;5090192;28;20096;-72
2023/01/27 01:56:13;;;;;;;27.48;13.07;;;21.60;56.00;;;;;;5089165;28;20039;-71
2023/01/27 01:58:41;;;;;;;26.30;12.27;;;21.50;56.30;;;;;;5089237;28;20144;-72
2023/01/27 02:01:07;;;;;;;23.98;12.30;;;21.50;56.40;;;;;;5091993;28;20052;-72
2023/01/27 02:03:37;;;;;;;25.92;14.77;;;21.70;55.80;;;;;;5094376;28;20039;-72
2023/01/27 02:06:05;;;;;;;24.77;13.57;;;21.70;55.60;;;;;;5094618;28;20028;-72
2023/01/27 02:08:41;;;;;;;20.90;10.77;;;21.70;55.90;;;;;;5094119;28;20079;-72
2023/01/27 02:11:08;;;;;;;24.67;11.75;;;21.50;56.40;;;;;;5093312;28;20028;-72
2023/01/27 02:13:38;;;;;;;25.73;12.88;;;21.50;56.50;;;;;;5093065;28;20346;-71
2023/01/27 02:16:04;;;;;;;24.48;12.57;;;21.50;56.20;;;;;;5094398;28;20066;-72
2023/01/27 02:18:30;;;;;;;20.33;9.93;;;21.70;55.90;;;;;;5094193;28;20040;-71
2023/01/27 02:20:57;;;;;;;24.48;12.27;;;21.70;55.30;;;;;;5091923;28;20141;-72
2023/01/27 02:23:29;;;;;;;27.73;14.02;;;21.80;55.40;;;;;;5094083;28;20368;-71
2023/01/27 02:25:58;;;;;;;23.30;11.73;;;21.60;55.40;;;;;;5094355;28;20050;-72
2023/01/27 02:28:29;;;;;;;19.73;11.50;;;21.50;55.60;;;;;;5075959;28;20099;-72
2023/01/27 02:30:56;;;;;;;28.08;14.40;;;21.50;56.00;;;;;;5092831;28;20588;-72
2023/01/27 02:33:22;;;;;;;20.35;11.30;;;21.40;55.80;;;;;;5093716;28;20051;-72
2023/01/27 02:36:13;;;;;;;21.63;9.63;;;21.20;56.20;;;;;;5092576;28;20039;-71
2023/01/27 02:38:54;;;;;;;23.05;10.93;;;21.20;56.20;;;;;;5092430;28;20044;-72
2023/01/27 02:41:26;;;;;;;26.25;11.80;;;21.40;56.10;;;;;;5093848;28;20055;-71
2023/01/27 02:43:52;;;;;;;19.70;9.82;;;21.30;55.60;;;;;;5092316;28;20396;-72
2023/01/27 02:46:19;;;;;;;19.67;11.68;;;21.40;56.00;;;;;;5093904;28;20158;-72
2023/01/27 02:48:45;;;;;;;27.10;12.30;;;21.20;55.40;;;;;;5093646;28;20066;-72
2023/01/27 02:51:12;;;;;;;28.27;13.15;;;21.20;55.60;;;;;;5093690;28;20020;-72
2023/01/27 02:53:42;;;;;;;20.80;12.32;;;21.10;55.70;;;;;;5092025;28;20032;-71
2023/01/27 02:56:08;;;;;;;28.48;13.70;;;21.20;55.90;;;;;;5092299;28;20131;-71
2023/01/27 02:58:35;;;;;;;21.08;12.07;;;21.10;55.80;;;;;;5092130;28;20474;-72
2023/01/27 03:01:14;;;;;;;23.40;12.63;;;21.00;55.90;;;;;;5092377;28;20036;-71
2023/01/27 03:03:42;;;;;;;22.30;11.80;;;21.10;56.10;;;;;;5093457;28;20052;-71
2023/01/27 03:06:18;;;;;;;22.60;11.38;;;21.00;55.70;;;;;;5092091;28;20035;-71
2023/01/27 03:08:44;;;;;;;19.67;10.35;;;21.00;55.70;;;;;;5093331;28;20388;-71
2023/01/27 03:11:12;;;;;;;25.70;12.38;;;21.00;55.80;;;;;;5091941;28;20070;-71
2023/01/27 03:13:40;;;;;;;16.27;8.73;;;20.90;55.60;;;;;;5090719;28;20027;-71
2023/01/27 03:18:52;;;;;;;17.40;9.40;;;21.00;55.50;;;;;;5073204;28;20502;-71
2023/01/27 03:21:19;;;;;;;19.05;10.70;;;21.10;55.30;;;;;;5073431;28;20491;-71
2023/01/27 03:23:47;;;;;;;17.38;9.90;;;21.20;55.00;;;;;;5056608;28;20085;-72
2023/01/27 03:26:17;;;;;;;17.90;9.43;;;21.30;54.60;;;;;;5073391;28;20691;-72
2023/01/27 03:29:53;;;;;;;19.73;11.48;;;21.20;54.70;;;;;;5073460;28;20483;-71
2023/01/27 03:31:36;;;;;;;18.05;10.23;;;21.30;54.40;;;;;;5073340;28;20048;-71
2023/01/27 03:34:03;;;;;;;18.33;10.00;;;21.30;54.70;;;;;;5073083;28;20063;-71
2023/01/27 03:47:45;;;;;;;19.33;10.65;;;20.80;55.20;;;;;;5091783;28;20071;-71
2023/01/27 03:50:17;;;;;;;20.92;12.13;;;20.60;55.10;;;;;;5092567;28;20067;-71
2023/01/27 03:53:01;;;;;;;21.25;12.00;;;20.60;55.30;;;;;;5092267;28;20100;-72
2023/01/27 03:55:32;;;;;;;19.35;9.38;;;20.50;55.30;;;;;;5091166;28;20123;-72
2023/01/27 04:00:53;;;;;;;22.10;12.57;;;20.60;55.00;;;;;;5089386;28;20127;-72
2023/01/27 04:08:53;;;;;;;25.77;12.52;;;20.60;55.00;;;;;;5089591;28;20048;-71
2023/01/27 04:14:06;;;;;;;20.85;11.65;;;20.50;54.60;;;;;;5072615;28;20032;-71
2023/01/27 04:16:35;;;;;;;21.33;12.60;;;20.50;54.60;;;;;;5072324;28;20070;-71
2023/01/27 04:19:03;;;;;;;28.77;12.40;;;20.50;54.50;;;;;;5089200;28;20143;-71
2023/01/27 04:21:29;;;;;;;29.92;14.85;;;20.40;54.50;;;;;;5038510;28;20044;-71
2023/01/27 04:23:55;;;;;;;21.63;11.27;;;20.50;54.40;;;;;;5088481;28;20067;-71
2023/01/27 04:26:22;;;;;;;22.80;13.25;;;20.50;54.30;;;;;;5088659;28;20040;-71
2023/01/27 04:28:48;;;;;;;24.70;12.23;;;20.50;54.10;;;;;;5089002;28;20050;-71
2023/01/27 04:31:15;;;;;;;21.15;11.07;;;20.60;54.10;;;;;;5089049;28;20126;-71
2023/01/27 04:33:44;;;;;;;20.23;10.75;;;20.50;54.10;;;;;;5088471;28;20032;-71
2023/01/27 04:36:15;;;;;;;20.38;11.82;;;20.50;53.90;;;;;;5088472;28;20735;-71
2023/01/27 04:38:41;;;;;;;20.52;11.05;;;20.70;53.70;;;;;;5090810;28;20056;-71
2023/01/27 04:41:07;;;;;;;24.73;12.85;;;20.70;53.60;;;;;;5091799;28;20358;-72
2023/01/27 04:43:33;;;;;;;25.50;12.50;;;20.70;53.60;;;;;;5089290;28;20040;-72
2023/01/27 04:45:59;;;;;;;21.77;12.25;;;20.80;53.60;;;;;;5091455;28;20040;-71
2023/01/27 04:48:25;;;;;;;23.90;13.15;;;20.80;53.60;;;;;;5091641;28;20038;-72
2023/01/27 04:50:51;;;;;;;25.90;12.35;;;20.80;53.40;;;;;;5091429;28;20036;-72
2023/01/27 04:53:17;;;;;;;28.23;12.30;;;20.80;53.60;;;;;;5091007;28;20461;-71
2023/01/27 04:55:46;;;;;;;25.52;14.18;;;20.80;53.50;;;;;;5091412;28;20032;-72
2023/01/27 04:58:12;;;;;;;27.58;13.48;;;20.60;53.60;;;;;;5091407;28;20127;-72
2023/01/27 05:00:38;;;;;;;27.88;14.40;;;20.60;54.00;;;;;;5091393;28;20157;-72
2023/01/27 05:03:05;;;;;;;23.90;13.02;;;20.60;54.10;;;;;;5091491;28;20024;-71
2023/01/27 05:05:31;;;;;;;29.40;14.00;;;20.50;54.70;;;;;;5089893;28;20032;-71
2023/01/27 05:08:05;;;;;;;27.20;13.40;;;20.50;55.30;;;;;;5091255;28;20667;-71
2023/01/27 05:10:31;;;;;;;28.27;14.23;;;20.50;54.80;;;;;;5091167;28;20063;-72
2023/01/27 05:12:58;;;;;;;23.50;11.98;;;20.50;54.80;;;;;;5091325;28;20078;-72
2023/01/27 05:15:24;;;;;;;30.45;13.82;;;20.50;55.30;;;;;;5091265;28;20036;-71
2023/01/27 05:17:51;;;;;;;22.05;12.82;;;20.70;54.90;;;;;;5090926;28;20039;-72
2023/01/27 05:20:17;;;;;;;22.05;11.00;;;20.80;54.00;;;;;;5090994;28;20453;-72
2023/01/27 05:22:43;;;;;;;27.08;12.57;;;21.20;58.00;;;;;;5091021;28;20536;-71
2023/01/27 05:25:09;;;;;;;23.48;11.10;;;21.70;61.10;;;;;;5090103;28;20036;-70
2023/01/27 05:27:35;;;;;;;21.00;11.10;;;22.10;63.20;;;;;;5090695;28;20046;-70
2023/01/27 05:30:01;;;;;;;23.58;11.95;;;22.20;62.80;;;;;;5072050;28;20040;-69
2023/01/27 05:32:27;;;;;;;25.83;11.77;;;22.30;56.80;;;;;;5091316;28;20039;-74
2023/01/27 05:34:53;;;;;;;22.88;11.38;;;22.30;54.10;;;;;;5091045;28;20030;-73
2023/01/27 05:37:19;;;;;;;30.58;15.68;;;22.40;52.00;;;;;;5094266;28;20043;-72
2023/01/27 05:39:45;;;;;;;24.58;13.45;;;22.20;49.00;;;;;;5095203;28;20028;-72
2023/01/27 05:42:11;;;;;;;26.13;13.90;;;22.00;48.60;;;;;;5093817;28;20081;-71
2023/01/27 05:44:37;;;;;;;24.35;11.77;;;21.90;49.10;;;;;;5094887;28;20047;-71
2023/01/27 05:47:03;;;;;;;28.90;13.80;;;21.60;49.60;;;;;;5094387;28;20039;-72
2023/01/27 05:49:29;;;;;;;24.65;12.32;;;21.50;50.30;;;;;;5094642;28;20024;-71
2023/01/27 05:51:55;;;;;;;28.83;14.57;;;21.40;50.70;;;;;;5095190;28;20024;-73
2023/01/27 05:54:21;;;;;;;24.88;12.93;;;21.40;51.20;;;;;;5095000;28;20065;-73
2023/01/27 05:56:47;;;;;;;22.60;11.35;;;21.30;51.70;;;;;;5094584;28;20035;-73
2023/01/27 05:59:13;;;;;;;26.35;11.68;;;21.30;52.60;;;;;;5093425;28;20522;-73
2023/01/27 06:01:39;;;;;;;20.35;12.02;;;21.40;52.60;;;;;;5094538;28;20043;-73
2023/01/27 06:04:05;;;;;;;24.75;11.60;;;21.60;52.30;;;;;;5094621;28;20032;-73
2023/01/27 06:06:32;;;;;;;25.50;11.55;;;21.90;52.10;;;;;;5094712;28;20035;-73
2023/01/27 06:08:59;;;;;;;25.40;12.98;;;21.90;51.90;;;;;;5094152;28;20047;-73
2023/01/27 06:11:25;;;;;;;19.13;11.25;;;21.90;51.90;;;;;;5094134;28;20036;-74
2023/01/27 06:13:52;;;;;;;25.45;10.38;;;22.00;56.60;;;;;;5093910;28;20107;-75
2023/01/27 06:16:20;;;;;;;28.38;15.45;;;22.30;56.80;;;;;;5093720;28;20028;-74
2023/01/27 06:18:47;;;;;;;21.65;12.35;;;22.60;56.60;;;;;;5092372;28;20075;-74
2023/01/27 06:21:15;;;;;;;24.63;14.35;;;22.80;56.60;;;;;;5093791;28;20048;-73
2023/01/27 06:23:41;;;;;;;22.70;15.02;;;22.90;55.80;;;;;;5093868;28;20093;-73
2023/01/27 06:26:15;;;;;;;25.95;13.90;;;22.90;58.90;;;;;;5092619;28;20441;-74
2023/01/27 06:28:41;;;;;;;20.50;11.75;;;23.00;58.90;;;;;;5092249;28;20044;-73
2023/01/27 06:31:10;;;;;;;20.83;11.73;;;23.10;61.80;;;;;;5093441;28;20032;-74
2023/01/27 06:33:37;;;;;;;26.27;15.70;;;23.10;61.40;;;;;;5093414;28;20078;-73
2023/01/27 06:36:06;;;;;;;24.90;16.42;;;23.00;63.80;;;;;;5094218;28;20056;-73
2023/01/27 06:38:32;;;;;;;17.63;12.10;;;23.20;62.10;;;;;;5093973;28;20123;-73
2023/01/27 06:40:59;;;;;;;25.38;16.23;;;23.20;64.10;;;;;;5094064;28;20043;-74
2023/01/27 06:43:25;;;;;;;24.08;16.58;;;23.20;64.10;;;;;;5093709;28;20032;-73
2023/01/27 06:45:52;;;;;;;28.30;16.92;;;23.20;60.30;;;;;;5093444;28;20031;-74
2023/01/27 06:48:18;;;;;;;26.08;16.25;;;23.30;61.40;;;;;;5093403;28;20032;-73
2023/01/27 06:50:45;;;;;;;24.73;13.35;;;23.30;62.20;;;;;;5093598;28;20089;-74
2023/01/27 06:53:11;;;;;;;23.80;12.00;;;23.30;58.90;;;;;;5093663;28;20404;-74
2023/01/27 06:55:40;;;;;;;24.20;11.98;;;23.30;57.60;;;;;;5093553;28;20128;-73
2023/01/27 06:58:11;;;;;;;22.25;11.73;;;23.30;54.80;;;;;;5093240;28;20523;-72
2023/01/27 07:00:39;;;;;;;16.30;8.57;;;23.10;53.90;;;;;;5092862;28;20097;-76
2023/01/27 07:03:05;;;;;;;19.20;9.25;;;23.10;54.20;;;;;;5092520;28;20027;-73
2023/01/27 07:05:32;;;;;;;14.80;8.98;;;23.20;54.00;;;;;;5093589;28;20067;-73
2023/01/27 07:07:59;;;;;;;24.58;13.60;;;23.00;54.20;;;;;;5093274;28;20032;-74
2023/01/27 07:10:25;;;;;;;20.42;12.13;;;23.20;52.60;;;;;;5093268;28;20119;-75
2023/01/27 07:12:51;;;;;;;25.98;11.98;;;22.90;51.60;;;;;;5093543;28;20115;-81
2023/01/27 07:15:17;;;;;;;24.42;12.88;;;22.80;51.20;;;;;;5093661;28;20135;-79
2023/01/27 07:17:43;;;;;;;23.02;12.73;;;22.50;52.20;;;;;;5093250;28;20681;-76
2023/01/27 07:20:13;;;;;;;28.98;14.27;;;22.40;53.10;;;;;;5092107;28;20066;-78
2023/01/27 07:22:39;;;;;;;31.33;15.15;;;22.20;54.20;;;;;;5093278;28;20169;-78
2023/01/27 07:25:06;;;;;;;27.02;13.98;;;22.00;57.20;;;;;;5091552;28;20099;-78
2023/01/27 07:27:32;;;;;;;27.25;13.98;;;22.00;58.00;;;;;;5092880;28;20051;-77
2023/01/27 07:29:57;;;;;;;19.50;9.48;;;21.90;57.70;;;;;;5111878;28;20630;-78
2023/01/27 07:32:24;;;;;;;19.70;10.00;;;21.80;58.80;;;;;;5110298;28;20040;-77
2023/01/27 07:34:49;;;;;;;20.10;8.00;;;21.80;58.50;;;;;;5093157;28;20107;-76
2023/01/27 07:37:15;;;;;;;19.25;10.85;;;22.00;57.30;;;;;;5092519;28;20115;-77
2023/01/27 07:39:41;;;;;;;25.17;9.95;;;22.10;56.60;;;;;;5092195;28;20040;-77
2023/01/27 07:42:09;;;;;;;20.23;9.18;;;22.20;55.70;;;;;;5082444;28;20780;-77
2023/01/27 07:44:35;;;;;;;20.25;10.75;;;22.30;55.20;;;;;;5072927;28;20070;-76
2023/01/27 07:47:02;;;;;;;22.00;10.52;;;22.30;54.60;;;;;;5039592;28;20102;-78
2023/01/27 07:49:27;;;;;;;19.58;10.15;;;22.40;54.00;;;;;;5090169;28;20020;-78
2023/01/27 07:51:53;;;;;;;23.40;12.18;;;22.40;53.50;;;;;;5089969;28;20444;-75
2023/01/27 07:54:20;;;;;;;27.95;14.07;;;22.50;52.70;;;;;;5089856;28;20079;-79
2023/01/27 07:56:46;;;;;;;25.67;14.27;;;22.20;52.90;;;;;;5090063;28;20416;-74
2023/01/27 07:59:12;;;;;;;24.67;12.55;;;22.00;53.90;;;;;;5075800;28;20075;-74
2023/01/27 08:01:40;;;;;;;24.45;12.50;;;22.00;54.80;;;;;;5069462;28;20132;-75
2023/01/27 08:04:06;;;;;;;20.25;12.55;;;21.80;55.20;;;;;;5069433;28;20060;-75
2023/01/27 08:06:32;;;;;;;24.17;12.43;;;21.80;55.90;;;;;;5069541;28;20048;-74
2023/01/27 08:08:59;;;;;;;21.17;12.48;;;21.60;56.40;;;;;;5069040;28;20071;-74
2023/01/27 08:11:25;;;;;;;21.80;12.20;;;21.50;56.90;;;;;;5069574;28;20086;-75
2023/01/27 08:13:52;;;;;;;25.25;12.73;;;21.40;57.40;;;;;;5069506;28;20469;-75
2023/01/27 08:16:18;;;;;;;18.25;10.20;;;21.20;57.70;;;;;;5069291;28;20048;-76
2023/01/27 08:18:44;;;;;;;23.58;12.07;;;21.20;58.10;;;;;;5072644;28;20142;-76
2023/01/27 08:21:11;;;;;;;18.15;10.43;;;21.20;58.00;;;;;;5091995;28;20028;-76
2023/01/27 08:23:38;;;;;;;20.42;10.52;;;21.10;58.20;;;;;;5091449;28;20446;-75
2023/01/27 08:26:06;;;;;;;21.50;11.15;;;21.10;58.20;;;;;;5091712;28;20046;-77
2023/01/27 08:28:35;;;;;;;18.70;10.38;;;21.10;58.50;;;;;;5092047;28;20032;-79
2023/01/27 08:31:09;;;;;;;16.00;10.05;;;21.00;56.80;;;;;;5091870;28;20429;-76
2023/01/27 08:33:36;;;;;;;18.60;11.02;;;21.50;62.00;;;;;;5107320;28;20027;-78
2023/01/27 08:36:04;;;;;;;14.38;8.68;;;22.10;60.80;;;;;;5112258;28;20403;-79
2023/01/27 08:38:30;;;;;;;17.35;10.48;;;22.80;59.00;;;;;;5112400;28;20044;-73
2023/01/27 08:40:56;;;;;;;15.45;9.23;;;23.20;59.00;;;;;;5112199;28;20523;-73
2023/01/27 08:43:22;;;;;;;16.05;9.00;;;23.60;60.20;;;;;;5112085;28;20119;-74
2023/01/27 08:45:51;;;;;;;18.80;11.25;;;23.90;62.30;;;;;;5111997;28;20033;-73
2023/01/27 08:48:17;;;;;;;17.35;10.63;;;24.20;63.30;;;;;;5111970;27;20033;-74
2023/01/27 08:50:43;;;;;;;19.83;9.98;;;24.10;55.90;;;;;;5103414;28;20028;-73
2023/01/27 08:53:09;;;;;;;13.07;8.45;;;23.90;57.70;;;;;;5091306;28;20028;-76
2023/01/27 08:55:35;;;;;;;17.83;9.18;;;23.80;59.30;;;;;;5091768;28;20127;-74
2023/01/27 08:58:02;;;;;;;20.70;10.68;;;23.90;59.80;;;;;;5091413;28;20503;-74
2023/01/27 09:00:28;;;;;;;22.23;11.23;;;24.00;59.50;;;;;;5091601;28;20054;-76
2023/01/27 09:02:54;;;;;;;26.58;11.85;;;24.10;54.80;;;;;;5091168;28;20036;-75
2023/01/27 09:05:21;;;;;;;25.35;11.75;;;24.20;57.90;;;;;;5091532;28;20066;-76
2023/01/27 09:07:47;;;;;;;32.80;12.13;;;24.30;63.00;;;;;;5091502;28;20066;-73
2023/01/27 09:10:14;;;;;;;25.15;14.30;;;24.30;63.40;;;;;;5093746;28;20073;-74
2023/01/27 09:12:42;;;;;;;27.95;11.63;;;24.30;65.80;;;;;;5095549;28;20033;-75
2023/01/27 09:15:08;;;;;;;17.80;10.20;;;24.40;63.60;;;;;;5095684;28;20063;-77
2023/01/27 09:17:34;;;;;;;23.58;12.38;;;24.60;65.80;;;;;;5095750;28;20032;-73
2023/01/27 09:20:00;;;;;;;26.33;12.23;;;24.70;67.10;;;;;;5095624;28;20065;-75
2023/01/27 09:22:26;;;;;;;32.78;12.25;;;24.70;64.20;;;;;;5095486;28;20638;-74
2023/01/27 09:24:52;;;;;;;39.88;16.10;;;24.70;64.90;;;;;;5076186;28;20074;-76
2023/01/27 09:27:18;;;;;;;100.03;34.53;;;24.90;67.00;;;;;;5095565;28;20032;-76
2023/01/27 09:29:44;;;;;;;59.70;14.95;;;25.00;60.60;;;;;;5095483;28;20108;-75
2023/01/27 09:32:11;;;;;;;24.38;11.65;;;25.20;54.00;;;;;;5095300;28;20428;-75
2023/01/27 09:34:38;;;;;;;23.40;11.52;;;25.20;57.00;;;;;;5095079;28;20461;-74
2023/01/27 09:37:12;;;;;;;18.15;11.10;;;25.20;57.90;;;;;;5095481;28;20024;-73
2023/01/27 09:39:52;;;;;;;23.67;11.15;;;25.00;50.70;;;;;;5094756;28;20052;-73
2023/01/27 09:42:42;;;;;;;18.15;11.55;;;25.00;50.60;;;;;;5095078;28;20123;-71
2023/01/27 09:45:45;;;;;;;16.48;11.05;;;24.90;54.10;;;;;;5095295;28;20063;-73
2023/01/27 09:48:48;;;;;;;16.95;11.32;;;25.00;62.00;;;;;;5095118;28;20093;-75
2023/01/27 09:51:26;;;;;;;16.92;11.38;;;24.90;55.70;;;;;;5095058;28;20100;-75
2023/01/27 09:54:15;;;;;;;15.40;9.77;;;24.70;55.40;;;;;;5094794;28;20472;-76
2023/01/27 09:57:16;;;;;;;21.52;12.75;;;24.70;57.90;;;;;;5094745;28;20063;-75
2023/01/27 10:00:35;;;;;;;24.85;14.25;;;24.90;59.20;;;;;;5094947;28;20039;-75
2023/01/27 10:03:47;;;;;;;18.25;10.80;;;25.20;59.90;;;;;;5032124;28;20112;-78
2023/01/27 10:06:32;;;;;;;19.00;11.75;;;25.20;55.30;;;;;;5032034;28;20030;-76
2023/01/27 10:09:13;;;;;;;21.38;11.70;;;25.00;55.70;;;;;;5031709;28;20053;-78
2023/01/27 10:12:06;;;;;;;19.85;12.25;;;24.90;56.30;;;;;;5031695;28;20072;-74
2023/01/27 10:14:54;;;;;;;25.15;13.27;;;24.60;57.00;;;;;;5014803;28;20356;-75
2023/01/27 10:17:23;;;;;;;22.13;13.23;;;24.40;57.80;;;;;;5031658;28;20056;-74
2023/01/27 10:19:55;;;;;;;34.58;17.55;;;24.10;58.30;;;;;;5031691;28;20069;-75
2023/01/27 10:22:39;;;;;;;21.80;13.80;;;24.10;58.90;;;;;;5014391;28;20485;-75
2023/01/27 10:25:13;;;;;;;17.92;10.70;;;23.80;59.80;;;;;;5031830;28;20171;-75
2023/01/27 10:27:46;;;;;;;15.80;10.63;;;23.70;60.30;;;;;;5031661;28;20095;-74
2023/01/27 10:30:20;;;;;;;21.90;12.82;;;23.70;63.80;;;;;;5031434;28;20044;-76
2023/01/27 10:33:13;;;;;;;17.95;11.00;;;23.60;63.20;;;;;;5035400;28;20382;-75
2023/01/27 10:35:52;;;;;;;20.30;11.15;;;23.50;64.20;;;;;;5094226;28;20040;-76
2023/01/27 10:38:30;;;;;;;18.45;10.65;;;23.50;63.70;;;;;;5092898;28;20032;-75
2023/01/27 10:41:14;;;;;;;19.20;11.23;;;23.40;65.10;;;;;;5093995;28;20035;-74
2023/01/27 10:44:04;;;;;;;16.08;10.05;;;23.40;65.10;;;;;;5093995;28;20038;-75
2023/01/27 10:46:39;;;;;;;21.83;13.27;;;23.70;67.50;;;;;;5093267;28;20450;-73
2023/01/27 10:49:29;;;;;;;22.30;15.40;;;24.50;72.10;;;;;;5093566;28;20122;-74
2023/01/27 10:52:04;;;;;;;16.80;10.98;;;25.30;72.20;;;;;;5093697;28;20463;-74
2023/01/27 10:54:56;;;;;;;17.17;10.30;;;25.80;67.10;;;;;;5092388;28;20032;-73
2023/01/27 10:57:27;;;;;;;18.23;11.88;;;25.60;61.60;;;;;;5011259;28;20046;-73
2023/01/27 11:00:20;;;;;;;18.60;11.55;;;25.40;60.20;;;;;;5011258;28;20050;-71
2023/01/27 11:02:58;;;;;;;19.60;11.23;;;25.10;59.90;;;;;;5010741;28;20045;-71
2023/01/27 11:05:35;;;;;;;14.23;8.45;;;24.90;59.30;;;;;;5011291;28;20041;-73
2023/01/27 11:08:10;;;;;;;21.63;12.52;;;25.20;64.50;;;;;;5010809;28;20568;-73
2023/01/27 11:11:42;;;;;;;11.60;7.78;;;25.70;64.90;;;;;;5011017;28;20507;-72
2023/01/27 11:13:29;;;;;;;16.05;9.52;;;26.10;66.10;;;;;;5011081;28;20045;-73
2023/01/27 11:15:56;;;;;;;18.80;10.70;;;26.30;65.70;;;;;;5010895;28;20108;-75
2023/01/27 11:18:27;;;;;;;19.50;12.48;;;26.30;57.80;;;;;;5010803;28;20046;-73
2023/01/27 11:20:59;;;;;;;14.20;9.30;;;26.00;56.20;;;;;;5010713;28;20073;-72
2023/01/27 11:23:30;;;;;;;19.15;11.45;;;25.90;56.10;;;;;;5010709;28;20042;-72
2023/01/27 11:26:10;;;;;;;18.63;10.85;;;25.50;56.80;;;;;;5010673;28;20478;-72
2023/01/27 11:28:45;;;;;;;16.05;10.38;;;25.40;57.20;;;;;;5010435;28;20050;-72
2023/01/27 11:31:42;;;;;;;20.25;8.98;;;25.40;57.80;;;;;;5010055;28;20486;-73
2023/01/27 11:34:30;;;;;;;18.25;10.73;;;25.20;58.40;;;;;;5063612;28;20040;-74
2023/01/27 11:36:57;;;;;;;19.27;9.75;;;25.00;58.90;;;;;;5111881;28;20050;-72
2023/01/27 11:39:32;;;;;;;20.02;10.00;;;24.90;59.40;;;;;;5093579;28;20126;-72
2023/01/27 11:41:58;;;;;;;16.77;10.95;;;24.80;58.90;;;;;;5113168;28;20547;-74
2023/01/27 11:44:31;;;;;;;14.52;9.40;;;24.70;59.40;;;;;;5112737;28;20106;-73
2023/01/27 11:46:57;;;;;;;20.00;11.82;;;24.50;59.50;;;;;;5113236;27;20035;-74
2023/01/27 11:49:27;;;;;;;18.98;10.05;;;24.40;59.70;;;;;;5113148;28;20023;-73
2023/01/27 11:52:04;;;;;;;20.38;12.23;;;24.30;59.90;;;;;;5113365;28;20377;-73
2023/01/27 11:54:38;;;;;;;20.95;10.85;;;24.20;60.70;;;;;;5113085;28;20042;-73
2023/01/27 11:57:04;;;;;;;21.58;11.85;;;24.20;61.10;;;;;;5113005;28;20031;-73
2023/01/27 11:59:37;;;;;;;20.58;11.57;;;24.10;61.50;;;;;;5112911;28;20047;-74
2023/01/27 12:02:05;;;;;;;;;;;24.00;61.70;;;;;;5113440;28;20031;-73
2023/01/27 12:04:37;;;;;;;20.25;10.73;;;23.80;62.40;;;;;;5112625;27;19908;-74
2023/01/27 12:07:11;;;;;;;16.00;9.40;;;23.70;62.60;;;;;;5113069;28;20039;-74
2023/01/27 12:09:39;;;;;;;15.73;10.98;;;23.60;63.60;;;;;;5112763;28;20040;-73
2023/01/27 12:12:26;;;;;;;17.42;9.45;;;23.60;63.20;;;;;;5113097;28;20525;-73
2023/01/27 12:14:53;;;;;;;16.92;10.23;;;23.60;63.00;;;;;;5112295;28;20472;-75
2023/01/27 12:17:41;;;;;;;21.20;12.27;;;23.70;63.70;;;;;;5075713;28;20040;-72
2023/01/27 12:20:32;;;;;;;17.65;10.73;;;23.50;62.80;;;;;;5109976;28;20043;-73
2023/01/27 12:23:22;;;;;;;16.70;9.05;;;23.40;63.60;;;;;;5109923;28;20039;-73
2023/01/27 12:25:59;;;;;;;18.83;10.98;;;23.30;63.60;;;;;;5109579;28;20468;-75
2023/01/27 12:28:27;;;;;;;19.38;11.93;;;23.20;64.10;;;;;;5109809;28;20070;-74
2023/01/27 12:31:01;;;;;;;19.02;10.43;;;23.20;64.10;;;;;;5109806;28;20067;-76
2023/01/27 12:33:30;;;;;;;21.05;12.63;;;23.10;66.10;;;;;;5095305;28;20059;-75
2023/01/27 12:35:59;;;;;;;20.00;11.80;;;23.20;68.70;;;;;;5089667;28;20086;-77
2023/01/27 12:38:32;;;;;;;22.23;13.75;;;23.20;67.80;;;;;;5089193;28;20055;-75
2023/01/27 12:41:02;;;;;;;20.10;12.10;;;23.00;66.10;;;;;;5089527;28;20156;-77
2023/01/27 12:43:29;;;;;;;29.70;13.10;;;23.20;67.10;;;;;;5089137;28;20043;-76
2023/01/27 12:46:24;;;;;;;20.77;10.05;;;22.90;66.80;;;;;;5088696;28;20044;-77
2023/01/27 12:49:08;;;;;;;20.15;11.90;;;23.00;66.20;;;;;;5090682;28;20066;-77
2023/01/27 12:51:44;;;;;;;19.67;10.18;;;23.00;65.70;;;;;;5091907;28;20032;-76
2023/01/27 12:54:31;;;;;;;16.65;10.68;;;22.90;65.80;;;;;;5091461;28;20032;-75
2023/01/27 12:57:03;;;;;;;23.15;10.80;;;22.90;65.30;;;;;;5091545;28;20055;-73
2023/01/27 12:59:30;;;;;;;19.92;12.25;;;23.00;65.70;;;;;;5091348;28;20086;-75
2023/01/27 13:02:19;;;;;;;20.65;12.63;;;22.90;65.40;;;;;;5091287;28;20034;-73
2023/01/27 13:04:54;;;;;;;16.15;10.13;;;23.00;65.60;;;;;;5028523;28;20054;-75
2023/01/27 13:07:28;;;;;;;20.80;9.27;;;23.10;64.70;;;;;;5012062;28;20068;-74
2023/01/27 13:10:04;;;;;;;19.90;10.95;;;23.30;62.20;;;;;;5028441;28;20119;-74
2023/01/27 13:12:48;;;;;;;16.90;10.80;;;23.40;59.90;;;;;;5028367;28;20029;-74
2023/01/27 13:15:20;;;;;;;19.33;10.35;;;23.50;58.70;;;;;;5028510;28;20052;-76
2023/01/27 13:17:48;;;;;;;22.75;13.48;;;23.60;57.50;;;;;;5028733;28;20077;-75
2023/01/27 13:20:17;;;;;;;21.05;13.35;;;23.80;56.50;;;;;;5028578;28;20037;-76